createdAt,value
2023-04-17T00:00:56.672Z,92836.00
2023-04-17T00:01:56.765Z,92834.00
2023-04-17T00:02:56.922Z,92834.00
2023-04-17T00:03:56.998Z,92832.00
2023-04-17T00:04:56.929Z,92832.00
2023-04-17T00:05:56.950Z,92832.00
2023-04-17T00:06:57.000Z,92832.00
2023-04-17T00:07:57.071Z,92825.00
2023-04-17T00:08:57.123Z,92832.00
2023-04-17T00:09:57.190Z,92832.00
2023-04-17T00:11:07.208Z,92832.00
2023-04-17T00:11:58.221Z,92823.00
2023-04-17T00:12:57.205Z,92825.00
2023-04-17T00:13:57.203Z,92823.00
2023-04-17T00:14:57.201Z,92823.00
2023-04-17T00:15:57.238Z,92823.00
2023-04-17T00:16:57.179Z,92823.00
2023-04-17T00:17:57.227Z,92821.00
2023-04-17T00:18:57.174Z,92819.00
2023-04-17T00:19:57.176Z,92819.00
2023-04-17T00:20:57.293Z,92819.00
2023-04-17T00:21:57.184Z,92817.00
2023-04-17T00:22:57.250Z,92817.00
2023-04-17T00:23:57.325Z,92815.00
2023-04-17T00:24:57.361Z,92813.00
2023-04-17T00:25:57.417Z,92813.00
2023-04-17T00:26:57.470Z,92813.00
2023-04-17T00:27:57.521Z,92813.00
2023-04-17T00:28:57.580Z,92813.00
2023-04-17T00:29:57.633Z,92811.00
2023-04-17T00:30:57.681Z,92811.00
2023-04-17T00:31:57.757Z,92809.00
2023-04-17T00:32:57.873Z,92809.00
2023-04-17T00:33:57.827Z,92809.00
2023-04-17T00:34:57.876Z,92809.00
2023-04-17T00:35:57.924Z,92809.00
2023-04-17T00:36:57.974Z,92807.00
2023-04-17T00:37:58.022Z,92805.00
2023-04-17T00:38:58.074Z,92807.00
2023-04-17T00:39:58.135Z,92807.00
2023-04-17T00:40:58.185Z,92807.00
2023-04-17T00:41:58.242Z,92799.00
2023-04-17T00:42:58.301Z,92805.00
2023-04-17T00:43:58.337Z,92807.00
2023-04-17T00:44:58.387Z,92807.00
2023-04-17T00:45:58.463Z,92805.00
2023-04-17T00:46:58.490Z,92801.00
2023-04-17T00:47:58.612Z,92805.00
2023-04-17T00:48:58.559Z,92807.00
2023-04-17T00:49:58.581Z,92807.00
2023-04-17T00:50:58.621Z,92803.00
2023-04-17T00:51:58.675Z,92803.00
2023-04-17T00:52:58.725Z,92805.00
2023-04-17T00:53:58.758Z,92807.00
2023-04-17T00:54:58.807Z,92807.00
2023-04-17T00:55:58.839Z,92811.00
2023-04-17T00:56:58.905Z,92807.00
2023-04-17T00:57:58.913Z,92809.00
2023-04-17T00:58:58.974Z,92811.00
2023-04-17T00:59:59.041Z,92809.00
2023-04-17T01:00:59.077Z,92809.00
2023-04-17T01:01:59.170Z,92809.00
2023-04-17T01:02:59.275Z,92811.00
2023-04-17T01:03:59.352Z,92807.00
2023-04-17T01:04:59.286Z,92807.00
2023-04-17T01:05:59.345Z,92805.00
2023-04-17T01:06:59.443Z,92807.00
2023-04-17T01:07:59.435Z,92807.00
2023-04-17T01:08:59.484Z,92805.00
2023-04-17T01:09:59.515Z,92805.00
2023-04-17T01:10:59.582Z,92803.00
2023-04-17T01:11:59.630Z,92803.00
2023-04-17T01:12:59.711Z,92803.00
2023-04-17T01:13:59.768Z,92801.00
2023-04-17T01:14:59.797Z,92803.00
2023-04-17T01:15:59.865Z,92803.00
2023-04-17T01:16:59.956Z,92801.00
2023-04-17T01:18:00.001Z,92803.00
2023-04-17T01:19:00.018Z,92805.00
2023-04-17T01:20:00.067Z,92803.00
2023-04-17T01:21:00.118Z,92805.00
2023-04-17T01:22:00.149Z,92803.00
2023-04-17T01:23:00.181Z,92803.00
2023-04-17T01:24:00.242Z,92805.00
2023-04-17T01:25:00.317Z,92803.00
2023-04-17T01:26:00.336Z,92805.00
2023-04-17T01:27:00.379Z,92805.00
2023-04-17T01:28:00.437Z,92801.00
2023-04-17T01:29:00.475Z,92805.00
2023-04-17T01:30:00.556Z,92805.00
2023-04-17T01:31:00.599Z,92803.00
2023-04-17T01:32:00.597Z,92803.00
2023-04-17T01:33:00.693Z,92803.00
2023-04-17T01:34:00.709Z,92805.00
2023-04-17T01:35:00.790Z,92805.00
2023-04-17T01:36:00.822Z,92805.00
2023-04-17T01:37:00.873Z,92805.00
2023-04-17T01:38:00.955Z,92809.00
2023-04-17T01:39:00.975Z,92809.00
2023-04-17T01:40:01.015Z,92809.00
2023-04-17T01:41:01.021Z,92809.00
2023-04-17T01:42:01.046Z,92809.00
2023-04-17T01:43:01.116Z,92809.00
2023-04-17T01:44:01.181Z,92811.00
2023-04-17T01:45:01.217Z,92809.00
2023-04-17T01:46:01.294Z,92811.00
2023-04-17T01:47:01.314Z,92811.00
2023-04-17T01:48:01.478Z,92811.00
2023-04-17T01:49:01.413Z,92809.00
2023-04-17T01:50:01.465Z,92811.00
2023-04-17T01:51:01.517Z,92811.00
2023-04-17T01:52:01.573Z,92813.00
2023-04-17T01:53:01.668Z,92813.00
2023-04-17T01:54:01.668Z,92815.00
2023-04-17T01:55:01.700Z,92815.00
2023-04-17T01:56:01.799Z,92813.00
2023-04-17T01:57:01.795Z,92813.00
2023-04-17T01:58:01.778Z,92813.00
2023-04-17T01:59:01.813Z,92813.00
2023-04-17T02:00:01.847Z,92809.00
2023-04-17T02:01:01.884Z,92807.00
2023-04-17T02:02:01.966Z,92807.00
2023-04-17T02:03:02.028Z,92805.00
2023-04-17T02:04:02.019Z,92805.00
2023-04-17T02:05:01.970Z,92805.00
2023-04-17T02:06:01.993Z,92807.00
2023-04-17T02:07:01.991Z,92803.00
2023-04-17T02:08:02.002Z,92803.00
2023-04-17T02:09:02.004Z,92805.00
2023-04-17T02:10:02.015Z,92801.00
2023-04-17T02:11:02.059Z,92803.00
2023-04-17T02:12:02.026Z,92797.00
2023-04-17T02:13:02.072Z,92799.00
2023-04-17T02:14:02.170Z,92797.00
2023-04-17T02:15:02.045Z,92799.00
2023-04-17T02:16:02.163Z,92797.00
2023-04-17T02:17:02.066Z,92799.00
2023-04-17T02:18:02.146Z,92799.00
2023-04-17T02:19:02.063Z,92801.00
2023-04-17T02:20:02.078Z,92799.00
2023-04-17T02:21:02.099Z,92799.00
2023-04-17T02:22:02.094Z,92801.00
2023-04-17T02:23:02.113Z,92799.00
2023-04-17T02:24:02.103Z,92801.00
2023-04-17T02:25:02.112Z,92801.00
2023-04-17T02:26:02.594Z,92801.00
2023-04-17T02:27:02.118Z,92801.00
2023-04-17T02:28:02.141Z,92801.00
2023-04-17T02:29:02.132Z,92803.00
2023-04-17T02:30:02.202Z,92805.00
2023-04-17T02:31:02.201Z,92805.00
2023-04-17T02:32:02.188Z,92805.00
2023-04-17T02:33:02.339Z,92805.00
2023-04-17T02:34:02.172Z,92807.00
2023-04-17T02:35:02.212Z,92805.00
2023-04-17T02:36:02.193Z,92805.00
2023-04-17T02:37:02.195Z,92807.00
2023-04-17T02:38:02.237Z,92807.00
2023-04-17T02:39:02.218Z,92805.00
2023-04-17T02:40:02.229Z,92807.00
2023-04-17T02:41:02.245Z,92805.00
2023-04-17T02:42:02.255Z,92805.00
2023-04-17T02:43:02.261Z,92807.00
2023-04-17T02:44:02.308Z,92805.00
2023-04-17T02:45:02.284Z,92807.00
2023-04-17T02:46:02.307Z,92811.00
2023-04-17T02:47:02.386Z,92807.00
2023-04-17T02:48:02.425Z,92805.00
2023-04-17T02:49:02.329Z,92807.00
2023-04-17T02:50:02.364Z,92811.00
2023-04-17T02:51:02.354Z,92807.00
2023-04-17T02:52:02.363Z,92807.00
2023-04-17T02:53:02.362Z,92811.00
2023-04-17T02:54:02.389Z,92811.00
2023-04-17T02:55:02.384Z,92809.00
2023-04-17T02:56:02.397Z,92807.00
2023-04-17T02:57:02.605Z,92807.00
2023-04-17T02:58:02.424Z,92807.00
2023-04-17T02:59:02.423Z,92807.00
2023-04-17T03:00:02.430Z,92805.00
2023-04-17T03:01:02.540Z,92803.00
2023-04-17T03:02:02.540Z,92803.00
2023-04-17T03:03:02.626Z,92801.00
2023-04-17T03:04:02.693Z,92803.00
2023-04-17T03:05:02.462Z,92801.00
2023-04-17T03:06:02.463Z,92801.00
2023-04-17T03:07:02.466Z,92799.00
2023-04-17T03:08:02.471Z,92801.00
2023-04-17T03:09:02.462Z,92801.00
2023-04-17T03:10:02.509Z,92801.00
2023-04-17T03:11:02.482Z,92801.00
2023-04-17T03:12:02.479Z,92799.00
2023-04-17T03:13:02.471Z,92801.00
2023-04-17T03:14:02.494Z,92799.00
2023-04-17T03:15:02.482Z,92799.00
2023-04-17T03:16:02.508Z,92799.00
2023-04-17T03:17:02.503Z,92801.00
2023-04-17T03:18:02.557Z,92799.00
2023-04-17T03:19:02.519Z,92801.00
2023-04-17T03:20:02.516Z,92803.00
2023-04-17T03:21:02.527Z,92801.00
2023-04-17T03:22:02.531Z,92805.00
2023-04-17T03:23:02.532Z,92803.00
2023-04-17T03:24:02.531Z,92803.00
2023-04-17T03:25:02.536Z,92807.00
2023-04-17T03:26:02.533Z,92805.00
2023-04-17T03:27:02.534Z,92807.00
2023-04-17T03:28:02.538Z,92807.00
2023-04-17T03:29:02.554Z,92807.00
2023-04-17T03:30:02.586Z,92805.00
2023-04-17T03:31:02.569Z,92805.00
2023-04-17T03:32:02.589Z,92807.00
2023-04-17T03:33:02.598Z,92807.00
2023-04-17T03:34:02.551Z,92807.00
2023-04-17T03:36:00.591Z,92809.00
2023-04-17T03:37:00.589Z,92811.00
2023-04-17T03:38:00.618Z,92811.00
2023-04-17T03:39:00.648Z,92813.00
2023-04-17T03:40:00.693Z,92809.00
2023-04-17T03:41:00.721Z,92813.00
2023-04-17T03:42:00.755Z,92815.00
2023-04-17T03:43:00.810Z,92815.00
2023-04-17T03:44:00.869Z,92815.00
2023-04-17T03:45:01.136Z,92815.00
2023-04-17T03:46:00.937Z,92815.00
2023-04-17T03:47:00.950Z,92817.00
2023-04-17T03:48:01.071Z,92817.00
2023-04-17T03:49:00.998Z,92817.00
2023-04-17T03:50:01.041Z,92817.00
2023-04-17T03:51:01.081Z,92819.00
2023-04-17T03:52:01.108Z,92825.00
2023-04-17T03:53:01.075Z,92823.00
2023-04-17T03:54:01.076Z,92823.00
2023-04-17T03:55:01.079Z,92819.00
2023-04-17T03:56:01.088Z,92823.00
2023-04-17T03:57:01.129Z,92825.00
2023-04-17T03:58:01.156Z,92825.00
2023-04-17T03:59:01.175Z,92832.00
2023-04-17T04:00:01.200Z,92825.00
2023-04-17T04:01:01.258Z,92823.00
2023-04-17T04:02:01.409Z,92823.00
2023-04-17T04:03:01.413Z,92823.00
2023-04-17T04:04:01.537Z,92823.00
2023-04-17T04:05:01.387Z,92825.00
2023-04-17T04:06:01.363Z,92832.00
2023-04-17T04:07:01.384Z,92825.00
2023-04-17T04:08:01.403Z,92832.00
2023-04-17T04:09:01.425Z,92825.00
2023-04-17T04:10:01.454Z,92825.00
2023-04-17T04:11:01.478Z,92825.00
2023-04-17T04:12:01.494Z,92832.00
2023-04-17T04:13:01.501Z,92821.00
2023-04-17T04:14:01.540Z,92832.00
2023-04-17T04:15:01.602Z,92832.00
2023-04-17T04:16:01.666Z,92834.00
2023-04-17T04:17:01.623Z,92834.00
2023-04-17T04:18:02.605Z,92834.00
2023-04-17T04:19:01.700Z,92836.00
2023-04-17T04:20:01.646Z,92834.00
2023-04-17T04:21:01.700Z,92836.00
2023-04-17T04:22:01.688Z,92836.00
2023-04-17T04:23:01.724Z,92838.00
2023-04-17T04:24:01.776Z,92838.00
2023-04-17T04:25:01.870Z,92838.00
2023-04-17T04:26:02.003Z,92838.00
2023-04-17T04:27:01.900Z,92840.00
2023-04-17T04:28:01.960Z,92840.00
2023-04-17T04:29:02.066Z,92842.00
2023-04-17T04:30:02.123Z,92842.00
2023-04-17T04:31:02.119Z,92844.00
2023-04-17T04:32:02.133Z,92844.00
2023-04-17T04:33:02.247Z,92844.00
2023-04-17T04:34:02.195Z,92844.00
2023-04-17T04:35:02.355Z,92842.00
2023-04-17T04:36:02.243Z,92844.00
2023-04-17T04:37:02.221Z,92842.00
2023-04-17T04:38:02.265Z,92844.00
2023-04-17T04:39:02.197Z,92842.00
2023-04-17T04:40:02.183Z,92838.00
2023-04-17T04:41:02.203Z,92838.00
2023-04-17T04:42:02.210Z,92838.00
2023-04-17T04:43:02.318Z,92838.00
2023-04-17T04:44:02.301Z,92836.00
2023-04-17T04:45:02.296Z,92836.00
2023-04-17T04:46:02.303Z,92836.00
2023-04-17T04:47:02.367Z,92836.00
2023-04-17T04:48:02.363Z,92836.00
2023-04-17T04:49:02.333Z,92836.00
2023-04-17T04:50:02.376Z,92838.00
2023-04-17T04:51:02.372Z,92836.00
2023-04-17T04:52:02.417Z,92838.00
2023-04-17T04:53:02.470Z,92838.00
2023-04-17T04:54:02.476Z,92840.00
2023-04-17T04:55:02.510Z,92840.00
2023-04-17T04:56:02.564Z,92844.00
2023-04-17T04:57:02.579Z,92844.00
2023-04-17T04:58:02.627Z,92844.00
2023-04-17T04:59:02.675Z,92844.00
2023-04-17T05:00:02.675Z,92846.00
2023-04-17T05:01:02.756Z,92846.00
2023-04-17T05:02:02.772Z,92848.00
2023-04-17T05:03:03.007Z,92848.00
2023-04-17T05:04:02.816Z,92848.00
2023-04-17T05:05:02.776Z,92848.00
2023-04-17T05:06:02.683Z,92846.00
2023-04-17T05:07:02.690Z,92844.00
2023-04-17T05:08:02.709Z,92844.00
2023-04-17T05:09:02.697Z,92844.00
2023-04-17T05:10:02.679Z,92844.00
2023-04-17T05:11:02.681Z,92844.00
2023-04-17T05:12:02.655Z,92842.00
2023-04-17T05:13:02.636Z,92842.00
2023-04-17T05:14:02.615Z,92842.00
2023-04-17T05:15:02.590Z,92842.00
2023-04-17T05:16:02.600Z,92842.00
2023-04-17T05:17:02.562Z,92844.00
2023-04-17T05:18:02.605Z,92846.00
2023-04-17T05:19:02.544Z,92846.00
2023-04-17T05:20:02.545Z,92844.00
2023-04-17T05:21:02.552Z,92846.00
2023-04-17T05:22:02.596Z,92846.00
2023-04-17T05:23:02.622Z,92848.00
2023-04-17T05:24:02.624Z,92848.00
2023-04-17T05:25:02.657Z,92848.00
2023-04-17T05:26:02.691Z,92846.00
2023-04-17T05:27:02.733Z,92848.00
2023-04-17T05:28:02.798Z,92854.00
2023-04-17T05:29:02.876Z,92852.00
2023-04-17T05:30:02.927Z,92852.00
2023-04-17T05:31:02.936Z,92850.00
2023-04-17T05:32:03.998Z,92856.00
2023-04-17T05:33:03.610Z,92858.00
2023-04-17T05:34:02.900Z,92856.00
2023-04-17T05:35:02.889Z,92860.00
2023-04-17T05:36:02.871Z,92858.00
2023-04-17T05:37:02.859Z,92860.00
2023-04-17T05:38:02.846Z,92862.00
2023-04-17T05:39:02.832Z,92862.00
2023-04-17T05:40:02.816Z,92866.00
2023-04-17T05:41:02.880Z,92862.00
2023-04-17T05:42:02.909Z,92864.00
2023-04-17T05:43:03.564Z,92866.00
2023-04-17T05:44:03.009Z,92868.00
2023-04-17T05:45:04.770Z,92866.00
2023-04-17T05:46:03.211Z,92870.00
2023-04-17T05:47:03.139Z,92868.00
2023-04-17T05:48:03.244Z,92868.00
2023-04-17T05:49:03.244Z,92870.00
2023-04-17T05:50:03.257Z,92868.00
2023-04-17T05:51:03.287Z,92870.00
2023-04-17T05:52:04.060Z,92868.00
2023-04-17T05:53:03.364Z,92872.00
2023-04-17T05:54:04.082Z,92872.00
2023-04-17T05:55:03.449Z,92874.00
2023-04-17T05:56:03.509Z,92870.00
2023-04-17T05:57:03.545Z,92872.00
2023-04-17T05:59:03.627Z,92874.00
2023-04-17T06:00:03.679Z,92876.00
2023-04-17T06:01:03.847Z,92876.00
2023-04-17T06:02:03.821Z,92876.00
2023-04-17T06:03:03.985Z,92878.00
2023-04-17T06:04:04.103Z,92879.00
2023-04-17T06:05:04.084Z,92881.00
2023-04-17T06:06:03.904Z,92879.00
2023-04-17T06:07:03.906Z,92879.00
2023-04-17T06:08:03.941Z,92879.00
2023-04-17T06:09:03.989Z,92879.00
2023-04-17T06:10:04.043Z,92879.00
2023-04-17T06:11:04.072Z,92883.00
2023-04-17T06:12:04.109Z,92883.00
2023-04-17T06:13:04.141Z,92885.00
2023-04-17T06:14:04.150Z,92883.00
2023-04-17T06:15:04.211Z,92883.00
2023-04-17T06:16:04.218Z,92883.00
2023-04-17T06:17:04.302Z,92881.00
2023-04-17T06:18:04.353Z,92879.00
2023-04-17T06:19:04.349Z,92887.00
2023-04-17T06:20:04.389Z,92881.00
2023-04-17T06:21:04.440Z,92879.00
2023-04-17T06:22:04.484Z,92883.00
2023-04-17T06:23:04.538Z,92885.00
2023-04-17T06:24:04.598Z,92885.00
2023-04-17T06:25:04.628Z,92885.00
2023-04-17T06:26:04.669Z,92885.00
2023-04-17T06:27:04.731Z,92887.00
2023-04-17T06:28:04.739Z,92887.00
2023-04-17T06:29:04.758Z,92889.00
2023-04-17T06:30:04.770Z,92885.00
2023-04-17T06:31:04.917Z,92885.00
2023-04-17T06:32:04.893Z,92883.00
2023-04-17T06:33:05.021Z,92881.00
2023-04-17T06:34:05.049Z,92881.00
2023-04-17T06:35:05.097Z,92881.00
2023-04-17T06:36:06.012Z,92881.00
2023-04-17T06:37:05.169Z,92879.00
2023-04-17T06:38:05.193Z,92883.00
2023-04-17T06:39:06.185Z,92879.00
2023-04-17T06:40:05.213Z,92879.00
2023-04-17T06:41:05.172Z,92874.00
2023-04-17T06:42:05.164Z,92874.00
2023-04-17T06:43:05.147Z,92876.00
2023-04-17T06:44:05.162Z,92872.00
2023-04-17T06:45:05.127Z,92870.00
2023-04-17T06:46:05.121Z,92868.00
2023-04-17T06:47:05.122Z,92868.00
2023-04-17T06:48:05.138Z,92868.00
2023-04-17T06:49:05.085Z,92870.00
2023-04-17T06:50:05.056Z,92866.00
2023-04-17T06:51:05.097Z,92866.00
2023-04-17T06:52:05.152Z,92870.00
2023-04-17T06:53:05.175Z,92864.00
2023-04-17T06:54:05.214Z,92864.00
2023-04-17T06:55:05.274Z,92862.00
2023-04-17T06:56:05.297Z,92858.00
2023-04-17T06:57:05.332Z,92860.00
2023-04-17T06:58:05.351Z,92862.00
2023-04-17T06:59:05.375Z,92862.00
2023-04-17T07:00:05.392Z,92860.00
2023-04-17T07:01:05.406Z,92862.00
2023-04-17T07:02:05.522Z,92860.00
2023-04-17T07:03:05.478Z,92860.00
2023-04-17T07:04:05.553Z,92858.00
2023-04-17T07:05:05.530Z,92856.00
2023-04-17T07:06:06.102Z,92862.00
2023-04-17T07:07:05.470Z,92860.00
2023-04-17T07:08:05.469Z,92862.00
2023-04-17T07:09:05.467Z,92862.00
2023-04-17T07:10:05.464Z,92864.00
2023-04-17T07:11:06.101Z,92870.00
2023-04-17T07:12:05.533Z,92870.00
2023-04-17T07:13:05.432Z,92870.00
2023-04-17T07:14:05.420Z,92870.00
2023-04-17T07:15:05.518Z,92876.00
2023-04-17T07:16:05.425Z,92878.00
2023-04-17T07:17:05.381Z,92876.00
2023-04-17T07:18:07.128Z,92872.00
2023-04-17T07:19:05.365Z,92874.00
2023-04-17T07:20:05.356Z,92876.00
2023-04-17T07:21:05.355Z,92876.00
2023-04-17T07:22:05.340Z,92879.00
2023-04-17T07:23:06.204Z,92879.00
2023-04-17T07:24:06.024Z,92878.00
2023-04-17T07:25:06.354Z,92878.00
2023-04-17T07:26:05.271Z,92876.00
2023-04-17T07:27:05.253Z,92874.00
2023-04-17T07:28:07.036Z,92878.00
2023-04-17T07:29:05.245Z,92878.00
2023-04-17T07:30:05.229Z,92876.00
2023-04-17T07:31:05.197Z,92881.00
2023-04-17T07:32:05.115Z,92876.00
2023-04-17T07:33:05.119Z,92878.00
2023-04-17T07:34:05.090Z,92879.00
2023-04-17T07:35:05.050Z,92879.00
2023-04-17T07:36:05.032Z,92881.00
2023-04-17T07:37:05.012Z,92878.00
2023-04-17T07:38:04.978Z,92879.00
2023-04-17T07:39:04.957Z,92878.00
2023-04-17T07:40:04.938Z,92879.00
2023-04-17T07:41:04.926Z,92878.00
2023-04-17T07:42:04.902Z,92879.00
2023-04-17T07:43:04.879Z,92881.00
2023-04-17T07:44:06.622Z,92878.00
2023-04-17T07:45:04.834Z,92879.00
2023-04-17T07:46:04.812Z,92879.00
2023-04-17T07:47:04.846Z,92881.00
2023-04-17T07:48:04.805Z,92881.00
2023-04-17T07:49:04.750Z,92883.00
2023-04-17T07:50:04.729Z,92881.00
2023-04-17T07:51:04.710Z,92879.00
2023-04-17T07:52:04.682Z,92881.00
2023-04-17T07:53:04.647Z,92881.00
2023-04-17T07:54:04.641Z,92879.00
2023-04-17T07:55:04.618Z,92878.00
2023-04-17T07:56:04.588Z,92878.00
2023-04-17T07:57:04.583Z,92881.00
2023-04-17T07:58:04.560Z,92881.00
2023-04-17T07:59:04.532Z,92879.00
2023-04-17T08:00:04.505Z,92881.00
2023-04-17T08:01:04.628Z,92881.00
2023-04-17T08:02:04.535Z,92885.00
2023-04-17T08:03:04.622Z,92885.00
2023-04-17T08:04:04.577Z,92887.00
2023-04-17T08:05:04.439Z,92885.00
2023-04-17T08:06:04.336Z,92885.00
2023-04-17T08:07:04.286Z,92887.00
2023-04-17T08:08:04.254Z,92885.00
2023-04-17T08:09:04.220Z,92887.00
2023-04-17T08:10:04.170Z,92885.00
2023-04-17T08:11:04.146Z,92885.00
2023-04-17T08:12:04.114Z,92885.00
2023-04-17T08:13:04.063Z,92891.00
2023-04-17T08:14:04.046Z,92885.00
2023-04-17T08:15:04.035Z,92879.00
2023-04-17T08:16:04.002Z,92881.00
2023-04-17T08:17:04.079Z,92878.00
2023-04-17T08:18:04.077Z,92878.00
2023-04-17T08:19:03.991Z,92878.00
2023-04-17T08:20:03.981Z,92874.00
2023-04-17T08:21:04.079Z,92872.00
2023-04-17T08:22:04.091Z,92872.00
2023-04-17T08:23:04.157Z,92874.00
2023-04-17T08:24:04.150Z,92870.00
2023-04-17T08:25:05.127Z,92870.00
2023-04-17T08:26:05.088Z,92870.00
2023-04-17T08:27:04.188Z,92868.00
2023-04-17T08:28:04.191Z,92868.00
2023-04-17T08:29:04.192Z,92870.00
2023-04-17T08:30:04.219Z,92870.00
2023-04-17T08:31:04.236Z,92866.00
2023-04-17T08:32:13.278Z,92870.00
2023-04-17T08:33:05.276Z,92866.00
2023-04-17T08:34:13.714Z,92866.00
2023-04-17T08:35:05.204Z,92866.00
2023-04-17T08:36:06.474Z,92862.00
2023-04-17T08:37:04.185Z,92860.00
2023-04-17T08:38:04.186Z,92862.00
2023-04-17T08:39:04.175Z,92854.00
2023-04-17T08:40:04.188Z,92864.00
2023-04-17T08:41:04.150Z,92860.00
2023-04-17T08:42:04.110Z,92858.00
2023-04-17T08:43:04.111Z,92860.00
2023-04-17T08:44:04.114Z,92856.00
2023-04-17T08:45:04.102Z,92850.00
2023-04-17T08:46:04.127Z,92854.00
2023-04-17T08:47:04.075Z,92854.00
2023-04-17T08:48:04.091Z,92854.00
2023-04-17T08:49:04.017Z,92850.00
2023-04-17T08:50:04.009Z,92854.00
2023-04-17T08:51:03.988Z,92848.00
2023-04-17T08:52:03.989Z,92848.00
2023-04-17T08:53:03.956Z,92850.00
2023-04-17T08:54:03.926Z,92846.00
2023-04-17T08:55:03.920Z,92850.00
2023-04-17T08:56:05.233Z,92846.00
2023-04-17T08:57:03.881Z,92844.00
2023-04-17T08:58:03.924Z,92844.00
2023-04-17T08:59:04.853Z,92844.00
2023-04-17T09:00:03.815Z,92842.00
2023-04-17T09:01:03.820Z,92846.00
2023-04-17T09:02:03.965Z,92840.00
2023-04-17T09:03:03.939Z,92844.00
2023-04-17T09:04:03.880Z,92846.00
2023-04-17T09:05:03.880Z,92842.00
2023-04-17T09:06:03.670Z,92844.00
2023-04-17T09:07:03.729Z,92838.00
2023-04-17T09:08:03.616Z,92840.00
2023-04-17T09:09:03.595Z,92840.00
2023-04-17T09:10:03.561Z,92838.00
2023-04-17T09:11:03.532Z,92836.00
2023-04-17T09:12:03.502Z,92834.00
2023-04-17T09:13:03.487Z,92832.00
2023-04-17T09:14:03.453Z,92832.00
2023-04-17T09:15:03.478Z,92825.00
2023-04-17T09:16:03.529Z,92836.00
2023-04-17T09:17:04.065Z,92821.00
2023-04-17T09:18:03.624Z,92821.00
2023-04-17T09:19:03.528Z,92823.00
2023-04-17T09:20:03.512Z,92819.00
2023-04-17T09:21:03.506Z,92823.00
2023-04-17T09:22:03.513Z,92823.00
2023-04-17T09:23:03.528Z,92821.00
2023-04-17T09:24:03.531Z,92821.00
2023-04-17T09:25:03.546Z,92823.00
2023-04-17T09:26:04.075Z,92823.00
2023-04-17T09:27:03.541Z,92823.00
2023-04-17T09:28:03.567Z,92821.00
2023-04-17T09:29:04.280Z,92823.00
2023-04-17T09:30:03.572Z,92823.00
2023-04-17T09:31:03.628Z,92821.00
2023-04-17T09:32:03.657Z,92823.00
2023-04-17T09:33:03.609Z,92825.00
2023-04-17T09:34:03.570Z,92825.00
2023-04-17T09:35:03.607Z,92825.00
2023-04-17T09:36:04.149Z,92832.00
2023-04-17T09:37:03.585Z,92832.00
2023-04-17T09:38:03.618Z,92834.00
2023-04-17T09:39:03.594Z,92825.00
2023-04-17T09:40:03.602Z,92825.00
2023-04-17T09:41:03.606Z,92832.00
2023-04-17T09:42:04.649Z,92825.00
2023-04-17T09:43:03.558Z,92825.00
2023-04-17T09:44:03.539Z,92832.00
2023-04-17T09:45:03.597Z,92832.00
2023-04-17T09:46:03.473Z,92825.00
2023-04-17T09:47:03.631Z,92825.00
2023-04-17T09:48:03.461Z,92825.00
2023-04-17T09:49:03.398Z,92825.00
2023-04-17T09:50:03.376Z,92823.00
2023-04-17T09:51:03.356Z,92819.00
2023-04-17T09:52:03.339Z,92817.00
2023-04-17T09:53:03.302Z,92815.00
2023-04-17T09:54:03.287Z,92819.00
2023-04-17T09:55:03.261Z,92815.00
2023-04-17T09:56:03.280Z,92807.00
2023-04-17T09:57:03.193Z,92813.00
2023-04-17T09:58:03.156Z,92811.00
2023-04-17T09:59:03.135Z,92811.00
2023-04-17T10:00:03.119Z,92809.00
2023-04-17T10:01:03.195Z,92811.00
2023-04-17T10:02:03.306Z,92807.00
2023-04-17T10:03:03.261Z,92805.00
2023-04-17T10:04:03.260Z,92803.00
2023-04-17T10:05:04.078Z,92805.00
2023-04-17T10:06:03.174Z,92801.00
2023-04-17T10:07:03.172Z,92801.00
2023-04-17T10:08:03.151Z,92801.00
2023-04-17T10:09:03.128Z,92795.00
2023-04-17T10:10:03.122Z,92797.00
2023-04-17T10:11:03.087Z,92801.00
2023-04-17T10:12:03.071Z,92793.00
2023-04-17T10:13:03.057Z,92789.00
2023-04-17T10:14:03.026Z,92789.00
2023-04-17T10:15:03.021Z,92795.00
2023-04-17T10:16:03.018Z,92789.00
2023-04-17T10:17:03.085Z,92791.00
2023-04-17T10:18:02.992Z,92787.00
2023-04-17T10:19:02.928Z,92789.00
2023-04-17T10:20:02.912Z,92793.00
2023-04-17T10:21:03.398Z,92789.00
2023-04-17T10:22:02.871Z,92793.00
2023-04-17T10:23:02.866Z,92784.00
2023-04-17T10:24:02.826Z,92782.00
2023-04-17T10:25:02.812Z,92784.00
2023-04-17T10:26:02.747Z,92787.00
2023-04-17T10:27:02.737Z,92786.00
2023-04-17T10:28:02.690Z,92784.00
2023-04-17T10:29:02.653Z,92778.00
2023-04-17T10:30:02.678Z,92782.00
2023-04-17T10:31:02.626Z,92784.00
2023-04-17T10:32:02.640Z,92782.00
2023-04-17T10:33:02.764Z,92778.00
2023-04-17T10:34:02.494Z,92778.00
2023-04-17T10:35:02.461Z,92776.00
2023-04-17T10:36:02.426Z,92772.00
2023-04-17T10:37:02.390Z,92770.00
2023-04-17T10:38:02.371Z,92774.00
2023-04-17T10:39:02.335Z,92768.00
2023-04-17T10:40:02.358Z,92766.00
2023-04-17T10:41:02.275Z,92764.00
2023-04-17T10:42:02.249Z,92766.00
2023-04-17T10:43:02.216Z,92768.00
2023-04-17T10:44:02.172Z,92766.00
2023-04-17T10:45:02.139Z,92762.00
2023-04-17T10:46:02.234Z,92764.00
2023-04-17T10:47:02.079Z,92758.00
2023-04-17T10:48:02.075Z,92762.00
2023-04-17T10:49:02.024Z,92762.00
2023-04-17T10:50:02.000Z,92760.00
2023-04-17T10:51:01.963Z,92756.00
2023-04-17T10:52:01.929Z,92758.00
2023-04-17T10:53:01.872Z,92758.00
2023-04-17T10:54:01.899Z,92758.00
2023-04-17T10:55:01.809Z,92752.00
2023-04-17T10:56:01.773Z,92754.00
2023-04-17T10:57:01.743Z,92754.00
2023-04-17T10:58:01.695Z,92752.00
2023-04-17T10:59:01.730Z,92754.00
2023-04-17T11:00:01.640Z,92754.00
2023-04-17T11:01:01.687Z,92754.00
2023-04-17T11:02:01.893Z,92750.00
2023-04-17T11:03:01.959Z,92750.00
2023-04-17T11:04:01.773Z,92756.00
2023-04-17T11:05:01.923Z,92754.00
2023-04-17T11:06:01.788Z,92750.00
2023-04-17T11:07:01.827Z,92750.00
2023-04-17T11:08:01.834Z,92752.00
2023-04-17T11:09:01.837Z,92750.00
2023-04-17T11:10:01.840Z,92752.00
2023-04-17T11:11:01.803Z,92750.00
2023-04-17T11:12:02.252Z,92750.00
2023-04-17T11:13:01.807Z,92750.00
2023-04-17T11:14:01.750Z,92752.00
2023-04-17T11:15:01.723Z,92752.00
2023-04-17T11:16:01.707Z,92750.00
2023-04-17T11:17:01.795Z,92744.00
2023-04-17T11:18:01.794Z,92746.00
2023-04-17T11:19:01.668Z,92742.00
2023-04-17T11:20:01.657Z,92742.00
2023-04-17T11:21:01.665Z,92740.00
2023-04-17T11:22:01.745Z,92744.00
2023-04-17T11:23:01.657Z,92742.00
2023-04-17T11:24:01.685Z,92742.00
2023-04-17T11:25:01.668Z,92744.00
2023-04-17T11:26:01.675Z,92742.00
2023-04-17T11:27:01.654Z,92742.00
2023-04-17T11:28:01.729Z,92744.00
2023-04-17T11:29:01.650Z,92746.00
2023-04-17T11:30:01.662Z,92738.00
2023-04-17T11:31:01.681Z,92736.00
2023-04-17T11:32:01.686Z,92736.00
2023-04-17T11:33:01.701Z,92738.00
2023-04-17T11:34:01.648Z,92735.00
2023-04-17T11:35:01.649Z,92738.00
2023-04-17T11:36:01.673Z,92733.00
2023-04-17T11:37:01.702Z,92736.00
2023-04-17T11:38:01.644Z,92736.00
2023-04-17T11:39:01.640Z,92736.00
2023-04-17T11:40:01.642Z,92736.00
2023-04-17T11:41:01.627Z,92731.00
2023-04-17T11:42:01.664Z,92738.00
2023-04-17T11:43:01.625Z,92735.00
2023-04-17T11:44:01.612Z,92738.00
2023-04-17T11:45:03.077Z,92738.00
2023-04-17T11:46:01.804Z,92735.00
2023-04-17T11:47:01.747Z,92740.00